CheckWX is a tool to help pilots better visualize weather data.  It is not intended as a substitute for an official pre-flight weather briefing.

04:38:52 UTC

EIME METAR
Casement Air Base Airport
Baldonnel, Ireland
Current

39 mins ago

EIME 250400Z 13007KT 9999 FEW014 SCT110 07/05 Q0992
Observed
Apr-25 @ 04:00 UTC
Wind
  • 130° at 7 KTS
Visibility
10,000+ meters
Flight Rules
VFR
Cloud Levels
  • Few at 1,400' AGL
  • Scattered at 11,000' AGL
Temperature
C / 45°F
Dewpoint
C / 41°F
Humidity
87%
Altimeter
29.29" Hg
Pressure
991.92 hPa
Previous

2 hours ago

EIME 250300Z 12003KT 9999 FEW025 SCT040 08/06 Q0991
Observed
Apr-25 @ 03:00 UTC
Wind
  • 120° at 3 KTS
Visibility
10,000+ meters
Flight Rules
VFR
Cloud Levels
  • Few at 2,500' AGL
  • Scattered at 4,000' AGL
Temperature
C / 46°F
Dewpoint
C / 43°F
Humidity
87%
Altimeter
29.26" Hg
Pressure
990.92 hPa
Previous

3 hours ago

EIME 250200Z 13008KT 9999 FEW022 09/05 Q0991
Observed
Apr-25 @ 02:00 UTC
Wind
  • 130° at 8 KTS
Visibility
10,000+ meters
Flight Rules
VFR
Cloud Levels
  • Few at 2,200' AGL
Temperature
C / 48°F
Dewpoint
C / 41°F
Humidity
76%
Altimeter
29.26" Hg
Pressure
990.92 hPa